createdAt,value
2023-03-01T00:00:38.736Z,6.87
2023-03-01T00:03:09.376Z,6.82
2023-03-01T00:05:39.174Z,6.88
2023-03-01T00:08:08.105Z,6.92
2023-03-01T00:10:37.236Z,6.90
2023-03-01T00:13:06.485Z,6.96
2023-03-01T00:15:36.103Z,6.94
2023-03-01T00:18:05.735Z,6.98
2023-03-01T00:20:36.300Z,6.97
2023-03-01T00:23:06.459Z,7.04
2023-03-01T00:25:35.726Z,7.03
2023-03-01T00:28:05.803Z,6.98
2023-03-01T00:30:35.758Z,6.93
2023-03-01T00:33:05.244Z,6.90
2023-03-01T00:35:37.354Z,6.81
2023-03-01T00:38:07.492Z,6.82
2023-03-01T00:40:38.155Z,6.88
2023-03-01T00:43:07.398Z,6.86
2023-03-01T00:45:36.330Z,6.95
2023-03-01T00:48:08.536Z,6.91
2023-03-01T00:50:39.218Z,6.94
2023-03-01T00:53:08.220Z,6.92
2023-03-01T00:55:40.152Z,6.94
2023-03-01T00:58:09.280Z,6.90
2023-03-01T01:00:38.456Z,6.99
2023-03-01T01:03:07.592Z,6.98
2023-03-01T01:05:39.299Z,7.01
2023-03-01T01:08:08.328Z,7.10
2023-03-01T01:10:38.262Z,7.20
2023-03-01T01:13:07.349Z,7.12
2023-03-01T01:15:37.255Z,7.28
2023-03-01T01:18:07.119Z,7.17
2023-03-01T01:20:41.100Z,7.21
2023-03-01T01:23:10.145Z,6.91
2023-03-01T01:25:39.197Z,7.12
2023-03-01T01:28:08.563Z,6.90
2023-03-01T01:30:38.012Z,7.01
2023-03-01T01:33:06.927Z,6.97
2023-03-01T01:35:37.775Z,6.93
2023-03-01T01:38:09.272Z,7.03
2023-03-01T01:40:46.645Z,6.99
2023-03-01T01:43:21.928Z,6.95
2023-03-01T01:45:52.035Z,6.75
2023-03-01T01:48:24.810Z,6.64
2023-03-01T01:50:58.206Z,6.71
2023-03-01T01:53:30.358Z,6.74
2023-03-01T01:56:02.927Z,6.77
2023-03-01T01:58:33.127Z,6.67
2023-03-01T02:01:02.993Z,6.79
2023-03-01T02:03:38.566Z,6.72
2023-03-01T02:06:14.705Z,6.78
2023-03-01T02:08:46.651Z,6.80
2023-03-01T02:11:17.352Z,6.80
2023-03-01T02:13:47.554Z,6.82
2023-03-01T02:16:17.832Z,6.83
2023-03-01T02:18:47.812Z,6.84
2023-03-01T02:21:43.427Z,6.73
2023-03-01T02:24:29.322Z,6.72
2023-03-01T02:27:01.279Z,6.76
2023-03-01T02:29:31.745Z,6.72
2023-03-01T02:32:04.334Z,6.78
2023-03-01T02:34:35.388Z,6.81
2023-03-01T02:37:07.802Z,6.85
2023-03-01T02:39:43.781Z,6.90
2023-03-01T02:42:16.028Z,6.98
2023-03-01T02:44:47.924Z,6.96
2023-03-01T02:47:17.130Z,6.92
2023-03-01T02:49:46.191Z,6.80
2023-03-01T02:52:26.590Z,6.84
2023-03-01T02:55:03.478Z,6.73
2023-03-01T02:57:34.694Z,6.79
2023-03-01T03:00:21.099Z,6.73
2023-03-01T03:02:53.311Z,6.67
2023-03-01T03:05:26.877Z,6.50
2023-03-01T03:08:00.029Z,6.67
2023-03-01T03:10:32.581Z,6.56
2023-03-01T03:13:04.059Z,6.50
2023-03-01T03:15:37.213Z,6.36
2023-03-01T03:18:11.381Z,6.32
2023-03-01T03:20:43.102Z,6.34
2023-03-01T03:23:13.129Z,6.47
2023-03-01T03:25:42.812Z,6.49
2023-03-01T03:28:12.372Z,6.42
2023-03-01T03:30:44.174Z,6.43
2023-03-01T03:33:15.166Z,6.41
2023-03-01T03:35:47.463Z,6.40
2023-03-01T03:38:18.217Z,6.34
2023-03-01T03:40:49.204Z,6.30
2023-03-01T03:43:20.211Z,6.37
2023-03-01T03:45:53.978Z,6.25
2023-03-01T03:48:23.374Z,6.23
2023-03-01T03:50:54.036Z,6.21
2023-03-01T03:53:24.601Z,6.23
2023-03-01T03:55:54.939Z,6.12
2023-03-01T03:58:25.743Z,6.16
2023-03-01T04:00:58.331Z,6.08
2023-03-01T04:03:29.409Z,6.03
2023-03-01T04:06:00.411Z,6.15
2023-03-01T04:08:30.445Z,6.21
2023-03-01T04:11:01.768Z,6.14
2023-03-01T04:13:30.946Z,6.22
2023-03-01T04:16:01.548Z,6.17
2023-03-01T04:18:32.194Z,6.17
2023-03-01T04:21:01.210Z,6.13
2023-03-01T04:23:30.750Z,6.17
2023-03-01T04:26:01.488Z,6.19
2023-03-01T04:28:33.948Z,6.15
2023-03-01T04:31:14.664Z,6.18
2023-03-01T04:33:45.344Z,6.30
2023-03-01T04:36:16.554Z,6.26
2023-03-01T04:38:48.631Z,6.31
2023-03-01T04:41:21.253Z,6.37
2023-03-01T04:43:50.897Z,6.31
2023-03-01T04:46:23.193Z,6.27
2023-03-01T04:48:52.454Z,6.23
2023-03-01T04:51:23.116Z,6.18
2023-03-01T04:53:52.177Z,6.12
2023-03-01T04:56:22.114Z,6.21
2023-03-01T04:58:52.795Z,6.25
2023-03-01T05:01:24.637Z,6.18
2023-03-01T05:03:54.739Z,6.18
2023-03-01T05:06:23.845Z,6.18
2023-03-01T05:08:53.570Z,6.22
2023-03-01T05:11:22.708Z,6.12
2023-03-01T05:13:56.112Z,6.18
2023-03-01T05:16:26.776Z,6.17
2023-03-01T05:18:56.698Z,6.07
2023-03-01T05:21:25.727Z,6.23
2023-03-01T05:23:54.776Z,6.22
2023-03-01T05:26:29.814Z,6.31
2023-03-01T05:29:00.625Z,6.33
2023-03-01T05:31:32.305Z,6.31
2023-03-01T05:34:01.987Z,6.46
2023-03-01T05:36:31.227Z,6.39
2023-03-01T05:39:00.469Z,6.21
2023-03-01T05:41:29.904Z,6.22
2023-03-01T05:43:58.990Z,6.30
2023-03-01T05:46:28.439Z,6.23
2023-03-01T05:48:59.216Z,6.25
2023-03-01T05:51:29.143Z,6.32
2023-03-01T05:53:59.819Z,6.31
2023-03-01T05:56:29.292Z,6.38
2023-03-01T05:58:59.860Z,6.38
2023-03-01T06:01:29.175Z,6.41
2023-03-01T06:03:59.677Z,6.48
2023-03-01T06:06:29.408Z,6.50
2023-03-01T06:08:58.496Z,6.49
2023-03-01T06:11:27.679Z,6.40
2023-03-01T06:13:56.896Z,6.41
2023-03-01T06:16:26.476Z,6.47
2023-03-01T06:18:55.527Z,6.46
2023-03-01T06:21:25.955Z,6.40
2023-03-01T06:23:55.068Z,6.48
2023-03-01T06:26:24.271Z,6.46
2023-03-01T06:28:53.236Z,6.38
2023-03-01T06:31:23.434Z,6.45
2023-03-01T06:33:52.593Z,6.51
2023-03-01T06:36:23.194Z,6.55
2023-03-01T06:38:53.740Z,6.47
2023-03-01T06:41:23.040Z,6.54
2023-03-01T06:43:52.341Z,6.56
2023-03-01T06:46:21.564Z,6.61
2023-03-01T06:48:53.107Z,6.63
2023-03-01T06:51:22.393Z,6.51
2023-03-01T06:53:53.239Z,6.63
2023-03-01T06:56:22.449Z,6.50
2023-03-01T06:58:51.637Z,6.53
2023-03-01T07:01:21.181Z,6.54
2023-03-01T07:03:50.306Z,6.27
2023-03-01T07:06:19.226Z,6.29
2023-03-01T07:08:49.192Z,6.34
2023-03-01T07:11:19.718Z,6.30
2023-03-01T07:13:48.895Z,6.31
2023-03-01T07:16:18.122Z,6.28
2023-03-01T07:18:47.330Z,6.23
2023-03-01T07:21:17.647Z,6.29
2023-03-01T07:23:49.659Z,6.29
2023-03-01T07:26:20.236Z,6.27
2023-03-01T07:28:49.406Z,6.38
2023-03-01T07:31:18.675Z,6.32
2023-03-01T07:33:47.824Z,6.40
2023-03-01T07:36:22.951Z,6.46
2023-03-01T07:38:52.337Z,6.48
2023-03-01T07:41:22.876Z,6.54
2023-03-01T07:43:51.892Z,6.44
2023-03-01T07:46:21.390Z,6.43
2023-03-01T07:48:50.466Z,6.56
2023-03-01T07:51:21.222Z,6.65
2023-03-01T07:53:51.505Z,6.72
2023-03-01T07:56:25.043Z,6.65
2023-03-01T07:58:54.374Z,6.82
2023-03-01T08:01:24.236Z,6.83
2023-03-01T08:03:53.187Z,6.80
2023-03-01T08:06:23.026Z,6.96
2023-03-01T08:08:52.168Z,6.81
2023-03-01T08:11:22.805Z,6.77
2023-03-01T08:13:53.212Z,6.67
2023-03-01T08:16:23.539Z,6.95
2023-03-01T08:18:52.581Z,6.93
2023-03-01T08:21:22.020Z,6.90
2023-03-01T08:23:51.249Z,7.06
2023-03-01T08:26:23.865Z,7.07
2023-03-01T08:28:53.020Z,7.17
2023-03-01T08:31:24.469Z,7.10
2023-03-01T08:33:57.435Z,7.17
2023-03-01T08:36:28.194Z,7.29
2023-03-01T08:38:57.810Z,7.18
2023-03-01T08:41:28.804Z,7.28
2023-03-01T08:44:00.111Z,7.12
2023-03-01T08:46:30.707Z,7.23
2023-03-01T08:49:00.275Z,7.28
2023-03-01T08:51:30.396Z,7.29
2023-03-01T08:54:02.054Z,7.32
2023-03-01T08:56:32.853Z,7.53
2023-03-01T08:59:02.418Z,7.64
2023-03-01T09:01:32.036Z,7.35
2023-03-01T09:04:01.527Z,7.14
2023-03-01T09:06:34.275Z,7.39
2023-03-01T09:09:04.288Z,7.34
2023-03-01T09:11:37.878Z,7.36
2023-03-01T09:14:08.437Z,7.50
2023-03-01T09:16:37.640Z,7.41
2023-03-01T09:19:06.996Z,7.65
2023-03-01T09:21:40.712Z,7.64
2023-03-01T09:24:15.917Z,7.64
2023-03-01T09:26:48.879Z,7.53
2023-03-01T09:29:19.425Z,7.52
2023-03-01T09:31:48.529Z,7.54
2023-03-01T09:34:20.530Z,7.53
2023-03-01T09:36:49.604Z,7.69
2023-03-01T09:39:21.705Z,7.71
2023-03-01T09:42:05.116Z,7.83
2023-03-01T09:44:38.980Z,7.77
2023-03-01T09:47:18.816Z,7.67
2023-03-01T09:49:54.444Z,7.85
2023-03-01T09:52:30.940Z,7.84
2023-03-01T09:55:01.014Z,7.80
2023-03-01T09:57:40.640Z,7.97
2023-03-01T10:00:32.582Z,8.10
2023-03-01T10:03:14.113Z,8.10
2023-03-01T10:05:52.637Z,8.31
2023-03-01T10:08:39.053Z,8.34
2023-03-01T10:11:24.886Z,8.35
2023-03-01T10:14:02.567Z,8.10
2023-03-01T10:16:41.558Z,8.16
2023-03-01T10:19:17.790Z,8.03
2023-03-01T10:21:48.843Z,8.15
2023-03-01T10:24:22.799Z,8.13
2023-03-01T10:27:00.256Z,8.24
2023-03-01T10:29:37.315Z,8.40
2023-03-01T10:32:07.758Z,8.36
2023-03-01T10:34:40.474Z,8.48
2023-03-01T10:37:15.667Z,8.21
2023-03-01T10:40:01.542Z,8.28
2023-03-01T10:42:34.289Z,8.28
2023-03-01T10:45:32.522Z,8.25
2023-03-01T10:48:07.398Z,8.23
2023-03-01T10:50:40.351Z,8.20
2023-03-01T10:53:30.287Z,8.36
2023-03-01T10:56:02.835Z,8.27
2023-03-01T10:58:32.759Z,8.14
2023-03-01T11:01:06.290Z,8.17
2023-03-01T11:03:37.146Z,8.20
2023-03-01T11:06:23.077Z,8.22
2023-03-01T11:08:53.240Z,8.19
2023-03-01T11:11:37.344Z,8.23
2023-03-01T11:14:25.193Z,8.15
2023-03-01T11:17:05.239Z,8.27
2023-03-01T11:19:35.165Z,8.17
2023-03-01T11:22:06.601Z,8.27
2023-03-01T11:24:44.904Z,8.15
2023-03-01T11:27:25.471Z,8.24
2023-03-01T11:30:02.785Z,8.07
2023-03-01T11:32:41.845Z,8.00
2023-03-01T11:35:17.972Z,8.11
2023-03-01T11:38:08.409Z,8.28
2023-03-01T11:40:43.142Z,8.23
2023-03-01T11:43:22.744Z,8.24
2023-03-01T11:46:27.723Z,8.14
2023-03-01T11:49:13.112Z,8.09
2023-03-01T11:51:55.175Z,7.95
2023-03-01T11:54:36.759Z,8.21
2023-03-01T11:57:15.238Z,8.06
2023-03-01T12:00:27.057Z,8.11
2023-03-01T12:03:38.232Z,8.20
2023-03-01T12:06:29.972Z,8.42
2023-03-01T12:09:21.013Z,8.29
2023-03-01T12:12:15.394Z,8.37
2023-03-01T12:15:04.710Z,8.25
2023-03-01T12:18:01.244Z,8.22
2023-03-01T12:20:37.136Z,8.33
2023-03-01T12:23:30.810Z,8.41
2023-03-01T12:26:03.660Z,8.32
2023-03-01T12:28:53.353Z,8.20
2023-03-01T12:32:01.658Z,8.32
2023-03-01T12:34:51.287Z,8.21
2023-03-01T12:37:32.296Z,7.98
2023-03-01T12:40:24.369Z,8.08
2023-03-01T12:43:09.294Z,8.23
2023-03-01T12:45:53.633Z,8.21
2023-03-01T12:48:35.613Z,8.21
2023-03-01T12:51:12.068Z,8.27
2023-03-01T12:53:45.038Z,8.32
2023-03-01T12:56:20.656Z,8.53
2023-03-01T12:59:00.622Z,8.50
2023-03-01T13:01:44.070Z,8.59
2023-03-01T13:04:28.258Z,8.50
2023-03-01T13:07:07.521Z,8.30
2023-03-01T13:09:45.568Z,8.29
2023-03-01T13:12:52.828Z,8.21
2023-03-01T13:15:32.479Z,8.12
2023-03-01T13:18:03.774Z,8.26
2023-03-01T13:20:49.018Z,8.35
2023-03-01T13:23:29.345Z,8.33
2023-03-01T13:26:22.763Z,8.34
2023-03-01T13:28:54.885Z,8.46
2023-03-01T13:32:01.456Z,8.55
2023-03-01T13:34:52.537Z,8.36
2023-03-01T13:37:40.598Z,8.46
2023-03-01T13:40:42.515Z,8.24
2023-03-01T13:43:35.484Z,8.17
2023-03-01T13:46:12.482Z,8.35
2023-03-01T13:48:43.287Z,8.25
2023-03-01T13:51:16.535Z,8.14
2023-03-01T13:53:47.303Z,8.21
2023-03-01T13:56:20.864Z,8.28
2023-03-01T13:58:55.087Z,8.24
2023-03-01T14:01:27.553Z,8.18
2023-03-01T14:03:58.296Z,8.29
2023-03-01T14:06:32.227Z,8.45
2023-03-01T14:09:11.539Z,8.28
2023-03-01T14:12:20.159Z,8.30
2023-03-01T14:14:57.701Z,8.31
2023-03-01T14:17:54.722Z,8.27
2023-03-01T14:20:26.681Z,8.09
2023-03-01T14:22:59.912Z,8.11
2023-03-01T14:25:31.313Z,8.16
2023-03-01T14:28:17.626Z,8.30
2023-03-01T14:30:48.823Z,8.41
2023-03-01T14:33:27.356Z,8.41
2023-03-01T14:36:02.057Z,8.42
2023-03-01T14:38:36.414Z,8.38
2023-03-01T14:41:12.175Z,8.40
2023-03-01T14:43:46.376Z,8.49
2023-03-01T14:46:23.506Z,8.31
2023-03-01T14:48:55.385Z,8.21
2023-03-01T14:51:25.598Z,8.27
2023-03-01T14:53:56.960Z,8.14
2023-03-01T14:56:27.012Z,8.12
2023-03-01T14:59:00.647Z,8.14
2023-03-01T15:01:31.737Z,8.05
2023-03-01T15:04:02.757Z,8.06
2023-03-01T15:06:32.884Z,8.27
2023-03-01T15:09:06.288Z,8.14
2023-03-01T15:11:38.313Z,8.13
2023-03-01T15:14:29.779Z,8.22
2023-03-01T15:16:59.472Z,8.00
2023-03-01T15:19:30.704Z,7.98
2023-03-01T15:22:00.213Z,8.09
2023-03-01T15:24:33.364Z,8.17
2023-03-01T15:27:08.119Z,8.16
2023-03-01T15:29:41.816Z,8.12
2023-03-01T15:32:28.994Z,8.09
2023-03-01T15:34:58.900Z,8.12
2023-03-01T15:37:52.314Z,7.97
2023-03-01T15:40:32.872Z,8.02
2023-03-01T15:43:03.118Z,7.90
2023-03-01T15:45:35.233Z,7.85
2023-03-01T15:48:06.679Z,7.76
2023-03-01T15:50:41.137Z,7.81
2023-03-01T15:53:15.606Z,7.81
2023-03-01T15:55:48.075Z,7.49
2023-03-01T15:58:20.513Z,7.61
2023-03-01T16:01:01.907Z,7.62
2023-03-01T16:03:32.963Z,7.63
2023-03-01T16:06:04.385Z,7.69
2023-03-01T16:08:33.812Z,7.62
2023-03-01T16:11:07.031Z,7.64
2023-03-01T16:13:36.248Z,7.73
2023-03-01T16:16:05.756Z,7.71
2023-03-01T16:18:35.751Z,7.68
2023-03-01T16:21:08.230Z,7.57
2023-03-01T16:23:37.500Z,7.40
2023-03-01T16:26:08.921Z,7.50
2023-03-01T16:28:38.129Z,7.41
2023-03-01T16:31:07.619Z,7.53
2023-03-01T16:33:38.004Z,7.53
2023-03-01T16:36:11.730Z,7.42
2023-03-01T16:38:40.945Z,7.21
2023-03-01T16:41:15.429Z,7.30
2023-03-01T16:43:45.299Z,7.29
2023-03-01T16:46:15.432Z,7.27
2023-03-01T16:48:47.886Z,7.32
2023-03-01T16:51:17.124Z,7.22
2023-03-01T16:53:47.637Z,7.23
2023-03-01T16:56:19.293Z,7.11
2023-03-01T16:58:49.943Z,7.13
2023-03-01T17:01:20.505Z,7.23
2023-03-01T17:03:52.553Z,7.18
2023-03-01T17:06:26.027Z,7.17
2023-03-01T17:08:55.993Z,6.93
2023-03-01T17:11:26.454Z,6.96
2023-03-01T17:13:55.505Z,7.01
2023-03-01T17:16:24.756Z,7.03
2023-03-01T17:18:53.690Z,6.95
2023-03-01T17:21:22.555Z,6.93
2023-03-01T17:23:53.116Z,6.98
2023-03-01T17:26:22.161Z,6.94
2023-03-01T17:28:53.229Z,6.92
2023-03-01T17:31:22.619Z,6.80
2023-03-01T17:33:53.066Z,6.83
2023-03-01T17:36:22.119Z,6.87
2023-03-01T17:38:51.218Z,6.74
2023-03-01T17:41:22.169Z,6.83
2023-03-01T17:43:52.689Z,6.81
2023-03-01T17:46:22.346Z,6.88
2023-03-01T17:48:51.377Z,6.91
2023-03-01T17:51:20.388Z,6.99
2023-03-01T17:53:52.534Z,6.78
2023-03-01T17:56:21.519Z,7.02
2023-03-01T17:58:51.900Z,7.02
2023-03-01T18:01:23.659Z,7.05
2023-03-01T18:03:53.378Z,6.98
2023-03-01T18:06:24.182Z,6.91
2023-03-01T18:08:55.259Z,6.90
2023-03-01T18:11:26.019Z,6.72
2023-03-01T18:13:57.783Z,6.78
2023-03-01T18:16:27.024Z,6.74
2023-03-01T18:18:57.528Z,6.71
2023-03-01T18:21:27.093Z,6.70
2023-03-01T18:23:56.490Z,6.63
2023-03-01T18:26:27.993Z,6.50
2023-03-01T18:29:01.419Z,6.49
2023-03-01T18:31:33.616Z,6.66
2023-03-01T18:34:02.774Z,6.70
2023-03-01T18:36:37.516Z,6.62
2023-03-01T18:39:08.958Z,6.70
2023-03-01T18:41:39.029Z,6.44
2023-03-01T18:44:09.897Z,6.56
2023-03-01T18:46:40.883Z,6.55
2023-03-01T18:49:10.416Z,6.53
2023-03-01T18:51:39.973Z,6.50
2023-03-01T18:54:09.313Z,6.62
2023-03-01T18:56:38.693Z,6.43
2023-03-01T18:59:09.322Z,6.59
2023-03-01T19:01:39.543Z,6.59
2023-03-01T19:04:11.293Z,6.54
2023-03-01T19:06:40.879Z,6.65
2023-03-01T19:09:11.702Z,6.67
2023-03-01T19:11:42.201Z,6.65
2023-03-01T19:14:13.154Z,6.65
2023-03-01T19:16:42.391Z,6.66
2023-03-01T19:19:12.252Z,6.53
2023-03-01T19:21:42.163Z,6.62
2023-03-01T19:24:11.324Z,6.70
2023-03-01T19:26:42.070Z,6.63
2023-03-01T19:29:12.581Z,6.67
2023-03-01T19:31:41.802Z,6.62
2023-03-01T19:34:12.704Z,6.76
2023-03-01T19:36:43.214Z,6.69
2023-03-01T19:39:14.423Z,6.88
2023-03-01T19:41:44.344Z,6.74
2023-03-01T19:44:14.968Z,6.70
2023-03-01T19:46:44.119Z,6.66
2023-03-01T19:49:14.084Z,6.61
2023-03-01T19:51:43.243Z,6.51
2023-03-01T19:54:15.078Z,6.55
2023-03-01T19:56:44.072Z,6.40
2023-03-01T19:59:15.184Z,6.54
2023-03-01T20:01:44.499Z,6.58
2023-03-01T20:04:14.508Z,6.41
2023-03-01T20:06:46.905Z,6.47
2023-03-01T20:09:21.767Z,6.59
2023-03-01T20:11:52.323Z,6.59
2023-03-01T20:14:24.180Z,6.64
2023-03-01T20:16:53.948Z,6.69
2023-03-01T20:19:23.194Z,6.77
2023-03-01T20:21:52.535Z,6.51
2023-03-01T20:24:21.624Z,6.70
2023-03-01T20:26:51.362Z,6.63
2023-03-01T20:29:20.621Z,6.63
2023-03-01T20:31:51.302Z,6.54
2023-03-01T20:34:20.481Z,6.74
2023-03-01T20:36:49.533Z,6.64
2023-03-01T20:39:19.268Z,6.47
2023-03-01T20:41:49.439Z,6.45
2023-03-01T20:44:19.965Z,6.43
2023-03-01T20:46:51.687Z,6.36
2023-03-01T20:49:21.882Z,6.45
2023-03-01T20:51:52.146Z,6.46
2023-03-01T20:54:22.032Z,6.41
2023-03-01T20:56:53.710Z,6.45
2023-03-01T20:59:24.163Z,6.46
2023-03-01T21:01:54.792Z,6.53
2023-03-01T21:04:23.864Z,6.49
2023-03-01T21:06:52.996Z,6.55
2023-03-01T21:09:23.761Z,6.49
2023-03-01T21:11:54.745Z,6.48
2023-03-01T21:14:23.957Z,6.60
2023-03-01T21:16:54.520Z,6.66
2023-03-01T21:19:25.858Z,6.62
2023-03-01T21:21:55.100Z,6.60
2023-03-01T21:24:24.321Z,6.50
2023-03-01T21:26:53.338Z,6.56
2023-03-01T21:29:22.260Z,6.47
2023-03-01T21:31:51.816Z,6.38
2023-03-01T21:34:22.274Z,6.53
2023-03-01T21:36:51.344Z,6.48
2023-03-01T21:39:21.768Z,6.34
2023-03-01T21:41:52.043Z,6.43
2023-03-01T21:44:21.143Z,6.51
2023-03-01T21:46:50.417Z,6.53
2023-03-01T21:49:20.040Z,6.24
2023-03-01T21:51:50.960Z,6.47
2023-03-01T21:54:21.115Z,6.28
2023-03-01T21:56:51.261Z,6.39
2023-03-01T21:59:22.162Z,6.48
2023-03-01T22:01:52.862Z,6.36
2023-03-01T22:04:24.774Z,6.30
2023-03-01T22:06:56.214Z,6.40
2023-03-01T22:09:25.841Z,6.35
2023-03-01T22:11:59.037Z,6.39
2023-03-01T22:14:28.458Z,6.43
2023-03-01T22:16:58.982Z,6.23
2023-03-01T22:19:28.898Z,6.36
2023-03-01T22:21:59.412Z,6.37
2023-03-01T22:24:28.923Z,6.42
2023-03-01T22:26:58.602Z,6.41
2023-03-01T22:29:30.446Z,6.36
2023-03-01T22:32:00.819Z,6.45
2023-03-01T22:34:30.867Z,6.38
2023-03-01T22:37:01.357Z,6.45
2023-03-01T22:39:31.201Z,6.28
2023-03-01T22:42:00.249Z,6.37
2023-03-01T22:44:29.442Z,6.45
2023-03-01T22:46:58.873Z,6.43
2023-03-01T22:49:28.017Z,6.36
2023-03-01T22:51:57.195Z,6.34
2023-03-01T22:54:27.666Z,6.34
2023-03-01T22:56:56.834Z,6.36
2023-03-01T22:59:25.924Z,6.23
2023-03-01T23:01:55.914Z,6.38
2023-03-01T23:04:25.516Z,6.28
2023-03-01T23:06:55.274Z,6.37
2023-03-01T23:09:27.890Z,6.14
2023-03-01T23:11:57.158Z,6.28
2023-03-01T23:14:27.604Z,6.25
2023-03-01T23:16:56.696Z,6.13
2023-03-01T23:19:25.897Z,6.13
2023-03-01T23:21:55.382Z,6.21
2023-03-01T23:24:32.175Z,6.19
2023-03-01T23:27:02.990Z,6.33
2023-03-01T23:29:33.789Z,6.19
2023-03-01T23:32:03.580Z,6.40
2023-03-01T23:34:32.658Z,6.43
2023-03-01T23:37:02.033Z,6.42
2023-03-01T23:39:33.495Z,6.44
2023-03-01T23:42:02.652Z,6.40
2023-03-01T23:44:31.803Z,6.41
2023-03-01T23:47:01.045Z,6.51
2023-03-01T23:49:30.478Z,6.49
2023-03-01T23:52:01.804Z,6.46
2023-03-01T23:54:33.121Z,6.44
2023-03-01T23:57:03.348Z,6.54
2023-03-01T23:59:32.587Z,6.41
